sensor_id;sensor_type;location;lat;lon;timestamp;temperature;humidity
6696;DHT22;3385;48.928;10.330;2023-07-29T00:02:10;15.20;99.90
6696;DHT22;3385;48.928;10.330;2023-07-29T00:07:02;15.50;99.90
6696;DHT22;3385;48.928;10.330;2023-07-29T00:09:28;15.10;99.90
6696;DHT22;3385;48.928;10.330;2023-07-29T00:11:53;15.00;99.90
6696;DHT22;3385;48.928;10.330;2023-07-29T00:14:19;15.10;99.90
6696;DHT22;3385;48.928;10.330;2023-07-29T00:16:45;15.10;99.90
6696;DHT22;3385;48.928;10.330;2023-07-29T00:19:10;15.20;99.90
6696;DHT22;3385;48.928;10.330;2023-07-29T00:21:36;15.20;99.90
6696;DHT22;3385;48.928;10.330;2023-07-29T00:24:02;15.00;99.90
6696;DHT22;3385;48.928;10.330;2023-07-29T00:26:28;15.00;99.90
6696;DHT22;3385;48.928;10.330;2023-07-29T00:28:55;15.00;99.90
6696;DHT22;3385;48.928;10.330;2023-07-29T00:31:21;15.50;99.90
6696;DHT22;3385;48.928;10.330;2023-07-29T00:33:47;15.00;99.90
6696;DHT22;3385;48.928;10.330;2023-07-29T00:36:13;14.60;99.90
6696;DHT22;3385;48.928;10.330;2023-07-29T00:38:38;14.80;99.90
6696;DHT22;3385;48.928;10.330;2023-07-29T00:41:06;15.10;99.90
6696;DHT22;3385;48.928;10.330;2023-07-29T00:43:32;14.80;99.90
6696;DHT22;3385;48.928;10.330;2023-07-29T00:45:58;14.70;99.90
6696;DHT22;3385;48.928;10.330;2023-07-29T00:48:25;14.90;99.90
6696;DHT22;3385;48.928;10.330;2023-07-29T00:50:51;14.70;99.90
6696;DHT22;3385;48.928;10.330;2023-07-29T00:53:17;14.70;99.90
6696;DHT22;3385;48.928;10.330;2023-07-29T00:55:43;14.80;99.90
6696;DHT22;3385;48.928;10.330;2023-07-29T00:58:10;15.20;99.90
6696;DHT22;3385;48.928;10.330;2023-07-29T01:00:36;14.50;99.90
6696;DHT22;3385;48.928;10.330;2023-07-29T01:03:02;14.60;99.90
6696;DHT22;3385;48.928;10.330;2023-07-29T01:08:33;15.10;99.90
6696;DHT22;3385;48.928;10.330;2023-07-29T01:11:14;14.70;99.90
6696;DHT22;3385;48.928;10.330;2023-07-29T01:13:54;14.80;99.90
6696;DHT22;3385;48.928;10.330;2023-07-29T01:16:55;15.10;99.90
6696;DHT22;3385;48.928;10.330;2023-07-29T01:19:43;14.70;99.90
6696;DHT22;3385;48.928;10.330;2023-07-29T01:22:11;15.00;99.90
6696;DHT22;3385;48.928;10.330;2023-07-29T01:24:38;15.00;99.90
6696;DHT22;3385;48.928;10.330;2023-07-29T01:27:04;15.00;99.90
6696;DHT22;3385;48.928;10.330;2023-07-29T01:29:31;14.60;99.90
6696;DHT22;3385;48.928;10.330;2023-07-29T01:32:01;14.90;99.90
6696;DHT22;3385;48.928;10.330;2023-07-29T01:34:35;14.70;99.90
6696;DHT22;3385;48.928;10.330;2023-07-29T01:37:07;14.80;99.90
6696;DHT22;3385;48.928;10.330;2023-07-29T01:42:02;14.90;99.90
6696;DHT22;3385;48.928;10.330;2023-07-29T01:44:28;14.80;99.90
6696;DHT22;3385;48.928;10.330;2023-07-29T01:46:56;14.80;99.90
6696;DHT22;3385;48.928;10.330;2023-07-29T01:49:21;15.00;99.90
6696;DHT22;3385;48.928;10.330;2023-07-29T01:51:47;15.00;99.90
6696;DHT22;3385;48.928;10.330;2023-07-29T01:54:13;14.90;99.90
6696;DHT22;3385;48.928;10.330;2023-07-29T01:56:39;14.80;99.90
6696;DHT22;3385;48.928;10.330;2023-07-29T01:59:04;14.70;99.90
6696;DHT22;3385;48.928;10.330;2023-07-29T02:01:30;14.90;99.90
6696;DHT22;3385;48.928;10.330;2023-07-29T02:03:56;14.80;99.90
6696;DHT22;3385;48.928;10.330;2023-07-29T02:06:22;14.80;99.90
6696;DHT22;3385;48.928;10.330;2023-07-29T02:08:48;14.80;99.90
6696;DHT22;3385;48.928;10.330;2023-07-29T02:11:14;14.70;99.90
6696;DHT22;3385;48.928;10.330;2023-07-29T02:13:39;14.70;99.90
6696;DHT22;3385;48.928;10.330;2023-07-29T02:16:05;14.70;99.90
6696;DHT22;3385;48.928;10.330;2023-07-29T02:18:31;14.70;99.90
6696;DHT22;3385;48.928;10.330;2023-07-29T02:20:56;14.80;99.90
6696;DHT22;3385;48.928;10.330;2023-07-29T02:23:22;15.00;99.90
6696;DHT22;3385;48.928;10.330;2023-07-29T02:25:48;14.70;99.90
6696;DHT22;3385;48.928;10.330;2023-07-29T02:28:14;14.80;99.90
6696;DHT22;3385;48.928;10.330;2023-07-29T02:30:41;14.80;99.90
6696;DHT22;3385;48.928;10.330;2023-07-29T02:33:09;14.80;99.90
6696;DHT22;3385;48.928;10.330;2023-07-29T02:35:35;14.80;99.90
6696;DHT22;3385;48.928;10.330;2023-07-29T02:38:01;14.90;99.90
6696;DHT22;3385;48.928;10.330;2023-07-29T02:40:27;14.70;99.90
6696;DHT22;3385;48.928;10.330;2023-07-29T02:42:54;15.00;99.90
6696;DHT22;3385;48.928;10.330;2023-07-29T02:45:20;14.90;99.90
6696;DHT22;3385;48.928;10.330;2023-07-29T02:47:46;15.00;99.90
6696;DHT22;3385;48.928;10.330;2023-07-29T02:50:12;14.90;99.90
6696;DHT22;3385;48.928;10.330;2023-07-29T02:52:38;15.10;99.90
6696;DHT22;3385;48.928;10.330;2023-07-29T02:55:04;15.10;99.90
6696;DHT22;3385;48.928;10.330;2023-07-29T02:57:30;15.00;99.90
6696;DHT22;3385;48.928;10.330;2023-07-29T02:59:55;15.20;99.90
6696;DHT22;3385;48.928;10.330;2023-07-29T03:02:21;15.20;99.90
6696;DHT22;3385;48.928;10.330;2023-07-29T03:04:48;14.90;99.90
6696;DHT22;3385;48.928;10.330;2023-07-29T03:07:13;15.00;99.90
6696;DHT22;3385;48.928;10.330;2023-07-29T03:09:40;15.20;99.90
6696;DHT22;3385;48.928;10.330;2023-07-29T03:12:07;15.00;99.90
6696;DHT22;3385;48.928;10.330;2023-07-29T03:14:33;15.20;99.90
6696;DHT22;3385;48.928;10.330;2023-07-29T03:17:02;15.50;99.90
6696;DHT22;3385;48.928;10.330;2023-07-29T03:19:29;15.10;99.90
6696;DHT22;3385;48.928;10.330;2023-07-29T03:21:55;15.50;99.90
6696;DHT22;3385;48.928;10.330;2023-07-29T03:24:21;15.50;99.90
6696;DHT22;3385;48.928;10.330;2023-07-29T03:26:47;15.20;99.90
6696;DHT22;3385;48.928;10.330;2023-07-29T03:29:12;15.30;99.90
6696;DHT22;3385;48.928;10.330;2023-07-29T03:31:38;15.50;99.90
6696;DHT22;3385;48.928;10.330;2023-07-29T03:34:04;15.20;99.90
6696;DHT22;3385;48.928;10.330;2023-07-29T03:36:29;15.40;99.90
6696;DHT22;3385;48.928;10.330;2023-07-29T03:38:55;15.20;99.90
6696;DHT22;3385;48.928;10.330;2023-07-29T03:41:21;14.90;99.90
6696;DHT22;3385;48.928;10.330;2023-07-29T03:43:46;14.80;99.90
6696;DHT22;3385;48.928;10.330;2023-07-29T03:46:12;15.20;99.90
6696;DHT22;3385;48.928;10.330;2023-07-29T03:48:39;14.90;99.90
6696;DHT22;3385;48.928;10.330;2023-07-29T03:51:04;14.80;99.90
6696;DHT22;3385;48.928;10.330;2023-07-29T03:53:30;14.80;99.90
6696;DHT22;3385;48.928;10.330;2023-07-29T03:55:56;15.20;99.90
6696;DHT22;3385;48.928;10.330;2023-07-29T03:58:21;14.80;99.90
6696;DHT22;3385;48.928;10.330;2023-07-29T04:00:47;14.90;99.90
6696;DHT22;3385;48.928;10.330;2023-07-29T04:03:13;14.90;99.90
6696;DHT22;3385;48.928;10.330;2023-07-29T04:05:39;15.10;99.90
6696;DHT22;3385;48.928;10.330;2023-07-29T04:08:05;15.20;99.90
6696;DHT22;3385;48.928;10.330;2023-07-29T04:10:30;15.30;99.90
6696;DHT22;3385;48.928;10.330;2023-07-29T04:12:57;15.20;99.90
6696;DHT22;3385;48.928;10.330;2023-07-29T04:15:23;15.20;99.90
6696;DHT22;3385;48.928;10.330;2023-07-29T04:17:48;15.20;99.90
6696;DHT22;3385;48.928;10.330;2023-07-29T04:20:14;15.40;99.90
6696;DHT22;3385;48.928;10.330;2023-07-29T04:22:40;15.30;99.90
6696;DHT22;3385;48.928;10.330;2023-07-29T04:25:06;15.90;99.90
6696;DHT22;3385;48.928;10.330;2023-07-29T04:27:32;15.80;99.90
6696;DHT22;3385;48.928;10.330;2023-07-29T04:29:57;15.60;99.90
6696;DHT22;3385;48.928;10.330;2023-07-29T04:32:23;15.60;99.90
6696;DHT22;3385;48.928;10.330;2023-07-29T04:34:49;16.30;99.90
6696;DHT22;3385;48.928;10.330;2023-07-29T04:37:15;15.90;99.90
6696;DHT22;3385;48.928;10.330;2023-07-29T04:39:40;16.10;99.90
6696;DHT22;3385;48.928;10.330;2023-07-29T04:42:06;16.30;99.90
6696;DHT22;3385;48.928;10.330;2023-07-29T04:44:32;16.40;99.90
6696;DHT22;3385;48.928;10.330;2023-07-29T04:46:58;16.30;99.90
6696;DHT22;3385;48.928;10.330;2023-07-29T04:49:24;16.40;99.90
6696;DHT22;3385;48.928;10.330;2023-07-29T04:51:49;16.10;99.90
6696;DHT22;3385;48.928;10.330;2023-07-29T04:54:15;16.40;99.90
6696;DHT22;3385;48.928;10.330;2023-07-29T04:56:41;16.30;99.90
6696;DHT22;3385;48.928;10.330;2023-07-29T04:59:06;16.20;99.90
6696;DHT22;3385;48.928;10.330;2023-07-29T05:01:33;16.30;99.90
6696;DHT22;3385;48.928;10.330;2023-07-29T05:03:59;16.10;99.90
6696;DHT22;3385;48.928;10.330;2023-07-29T05:06:25;16.60;99.90
6696;DHT22;3385;48.928;10.330;2023-07-29T05:08:51;16.50;99.90
6696;DHT22;3385;48.928;10.330;2023-07-29T05:11:16;16.00;99.90
6696;DHT22;3385;48.928;10.330;2023-07-29T05:13:42;16.40;99.90
6696;DHT22;3385;48.928;10.330;2023-07-29T05:16:09;16.30;99.90
6696;DHT22;3385;48.928;10.330;2023-07-29T05:18:35;16.20;99.90
6696;DHT22;3385;48.928;10.330;2023-07-29T05:21:00;16.40;99.90
6696;DHT22;3385;48.928;10.330;2023-07-29T05:23:26;16.30;99.90
6696;DHT22;3385;48.928;10.330;2023-07-29T05:25:52;16.30;99.90
6696;DHT22;3385;48.928;10.330;2023-07-29T05:28:17;16.70;99.90
6696;DHT22;3385;48.928;10.330;2023-07-29T05:30:43;16.40;99.90
6696;DHT22;3385;48.928;10.330;2023-07-29T05:33:12;16.70;99.90
6696;DHT22;3385;48.928;10.330;2023-07-29T05:35:37;16.70;99.90
6696;DHT22;3385;48.928;10.330;2023-07-29T05:38:03;16.60;99.90
6696;DHT22;3385;48.928;10.330;2023-07-29T05:40:31;17.00;99.90
6696;DHT22;3385;48.928;10.330;2023-07-29T05:42:57;16.80;99.90
6696;DHT22;3385;48.928;10.330;2023-07-29T05:45:22;17.00;99.90
6696;DHT22;3385;48.928;10.330;2023-07-29T05:47:48;16.60;99.90
6696;DHT22;3385;48.928;10.330;2023-07-29T05:50:15;17.10;99.90
6696;DHT22;3385;48.928;10.330;2023-07-29T05:52:42;17.00;99.90
6696;DHT22;3385;48.928;10.330;2023-07-29T05:55:08;16.70;99.90
6696;DHT22;3385;48.928;10.330;2023-07-29T05:57:34;16.80;99.90
6696;DHT22;3385;48.928;10.330;2023-07-29T05:59:59;16.70;99.90
6696;DHT22;3385;48.928;10.330;2023-07-29T06:02:25;16.90;99.90
6696;DHT22;3385;48.928;10.330;2023-07-29T06:04:51;17.10;99.90
6696;DHT22;3385;48.928;10.330;2023-07-29T06:07:16;16.90;99.90
6696;DHT22;3385;48.928;10.330;2023-07-29T06:09:42;16.80;99.90
6696;DHT22;3385;48.928;10.330;2023-07-29T06:14:34;16.90;99.90
6696;DHT22;3385;48.928;10.330;2023-07-29T06:17:00;17.00;99.90
6696;DHT22;3385;48.928;10.330;2023-07-29T06:19:26;16.70;99.90
6696;DHT22;3385;48.928;10.330;2023-07-29T06:21:55;16.90;99.90
6696;DHT22;3385;48.928;10.330;2023-07-29T06:24:21;16.70;99.90
6696;DHT22;3385;48.928;10.330;2023-07-29T06:29:13;16.80;99.90
6696;DHT22;3385;48.928;10.330;2023-07-29T06:31:38;16.90;99.90
6696;DHT22;3385;48.928;10.330;2023-07-29T06:34:04;17.00;99.90
6696;DHT22;3385;48.928;10.330;2023-07-29T06:36:30;17.20;99.90
6696;DHT22;3385;48.928;10.330;2023-07-29T06:38:55;17.00;99.90
6696;DHT22;3385;48.928;10.330;2023-07-29T06:41:21;16.80;99.90
6696;DHT22;3385;48.928;10.330;2023-07-29T06:43:47;17.30;99.90
6696;DHT22;3385;48.928;10.330;2023-07-29T06:46:12;17.00;99.90
6696;DHT22;3385;48.928;10.330;2023-07-29T06:48:38;17.30;99.90
6696;DHT22;3385;48.928;10.330;2023-07-29T06:53:30;17.70;99.90
6696;DHT22;3385;48.928;10.330;2023-07-29T06:55:56;17.40;99.90
6696;DHT22;3385;48.928;10.330;2023-07-29T06:58:22;17.90;99.90
6696;DHT22;3385;48.928;10.330;2023-07-29T07:03:14;17.90;99.90
6696;DHT22;3385;48.928;10.330;2023-07-29T07:05:39;17.70;99.90
6696;DHT22;3385;48.928;10.330;2023-07-29T07:08:05;17.80;99.90
6696;DHT22;3385;48.928;10.330;2023-07-29T07:12:59;17.80;99.90
6696;DHT22;3385;48.928;10.330;2023-07-29T07:15:25;18.20;99.90
6696;DHT22;3385;48.928;10.330;2023-07-29T07:17:51;18.20;99.90
6696;DHT22;3385;48.928;10.330;2023-07-29T07:20:17;18.00;99.90
6696;DHT22;3385;48.928;10.330;2023-07-29T07:22:43;17.90;99.90
6696;DHT22;3385;48.928;10.330;2023-07-29T07:25:08;17.90;99.90
6696;DHT22;3385;48.928;10.330;2023-07-29T07:27:34;18.20;99.90
6696;DHT22;3385;48.928;10.330;2023-07-29T07:30:00;18.30;99.90
6696;DHT22;3385;48.928;10.330;2023-07-29T07:32:26;18.40;99.90
6696;DHT22;3385;48.928;10.330;2023-07-29T07:34:52;18.70;99.90
6696;DHT22;3385;48.928;10.330;2023-07-29T07:37:17;18.90;99.90
6696;DHT22;3385;48.928;10.330;2023-07-29T07:39:43;19.10;99.90
6696;DHT22;3385;48.928;10.330;2023-07-29T07:44:35;19.50;99.90
6696;DHT22;3385;48.928;10.330;2023-07-29T07:47:00;19.30;99.90
6696;DHT22;3385;48.928;10.330;2023-07-29T07:49:26;19.20;99.90
6696;DHT22;3385;48.928;10.330;2023-07-29T07:51:52;18.60;99.90
6696;DHT22;3385;48.928;10.330;2023-07-29T07:54:18;19.20;99.90
6696;DHT22;3385;48.928;10.330;2023-07-29T07:56:43;19.20;99.90
6696;DHT22;3385;48.928;10.330;2023-07-29T07:59:11;18.90;99.90
6696;DHT22;3385;48.928;10.330;2023-07-29T08:01:40;18.70;99.90
6696;DHT22;3385;48.928;10.330;2023-07-29T08:04:06;18.90;99.90
6696;DHT22;3385;48.928;10.330;2023-07-29T08:06:32;18.70;99.90
6696;DHT22;3385;48.928;10.330;2023-07-29T08:08:58;18.60;99.90
6696;DHT22;3385;48.928;10.330;2023-07-29T08:11:26;18.80;99.90
6696;DHT22;3385;48.928;10.330;2023-07-29T08:13:51;18.60;99.90
6696;DHT22;3385;48.928;10.330;2023-07-29T08:16:17;18.50;99.90
6696;DHT22;3385;48.928;10.330;2023-07-29T08:18:43;18.20;99.90
6696;DHT22;3385;48.928;10.330;2023-07-29T08:21:09;17.80;99.90
6696;DHT22;3385;48.928;10.330;2023-07-29T08:23:35;17.70;99.90
6696;DHT22;3385;48.928;10.330;2023-07-29T08:26:04;17.70;99.90
6696;DHT22;3385;48.928;10.330;2023-07-29T08:28:35;17.80;99.90
6696;DHT22;3385;48.928;10.330;2023-07-29T08:31:02;17.60;99.90
6696;DHT22;3385;48.928;10.330;2023-07-29T08:35:54;17.60;99.90
6696;DHT22;3385;48.928;10.330;2023-07-29T08:38:21;17.80;99.90
6696;DHT22;3385;48.928;10.330;2023-07-29T08:43:29;17.80;99.90
6696;DHT22;3385;48.928;10.330;2023-07-29T08:45:59;18.00;99.90
6696;DHT22;3385;48.928;10.330;2023-07-29T08:48:41;17.70;99.90
6696;DHT22;3385;48.928;10.330;2023-07-29T08:51:11;17.80;99.90
6696;DHT22;3385;48.928;10.330;2023-07-29T08:53:38;18.20;99.90
6696;DHT22;3385;48.928;10.330;2023-07-29T08:56:05;17.80;99.90
6696;DHT22;3385;48.928;10.330;2023-07-29T08:58:31;18.00;99.90
6696;DHT22;3385;48.928;10.330;2023-07-29T09:00:57;18.20;99.90
6696;DHT22;3385;48.928;10.330;2023-07-29T09:03:23;18.60;99.90
6696;DHT22;3385;48.928;10.330;2023-07-29T09:08:17;19.00;99.90
6696;DHT22;3385;48.928;10.330;2023-07-29T09:13:10;18.80;99.90
6696;DHT22;3385;48.928;10.330;2023-07-29T09:15:37;19.10;99.90
6696;DHT22;3385;48.928;10.330;2023-07-29T09:18:16;19.50;99.90
6696;DHT22;3385;48.928;10.330;2023-07-29T09:20:43;19.40;99.90
6696;DHT22;3385;48.928;10.330;2023-07-29T09:23:10;19.00;99.90
6696;DHT22;3385;48.928;10.330;2023-07-29T09:25:36;19.50;99.90
6696;DHT22;3385;48.928;10.330;2023-07-29T09:28:11;20.00;99.90
6696;DHT22;3385;48.928;10.330;2023-07-29T09:30:42;19.40;99.90
6696;DHT22;3385;48.928;10.330;2023-07-29T09:33:09;19.70;99.90
6696;DHT22;3385;48.928;10.330;2023-07-29T09:35:36;19.50;99.90
6696;DHT22;3385;48.928;10.330;2023-07-29T09:38:04;19.70;99.90
6696;DHT22;3385;48.928;10.330;2023-07-29T09:40:38;19.80;99.90
6696;DHT22;3385;48.928;10.330;2023-07-29T09:43:04;20.00;99.90
6696;DHT22;3385;48.928;10.330;2023-07-29T09:45:33;20.10;99.90
6696;DHT22;3385;48.928;10.330;2023-07-29T09:48:01;20.00;99.90
6696;DHT22;3385;48.928;10.330;2023-07-29T09:50:28;20.20;99.90
6696;DHT22;3385;48.928;10.330;2023-07-29T09:52:55;20.10;99.90
6696;DHT22;3385;48.928;10.330;2023-07-29T09:55:24;20.20;99.90
6696;DHT22;3385;48.928;10.330;2023-07-29T09:57:56;20.20;99.90
6696;DHT22;3385;48.928;10.330;2023-07-29T10:00:22;20.20;99.90
6696;DHT22;3385;48.928;10.330;2023-07-29T10:05:15;20.40;99.90
6696;DHT22;3385;48.928;10.330;2023-07-29T10:07:41;20.60;99.90
6696;DHT22;3385;48.928;10.330;2023-07-29T10:10:08;20.60;99.90
6696;DHT22;3385;48.928;10.330;2023-07-29T10:12:35;20.30;99.90
6696;DHT22;3385;48.928;10.330;2023-07-29T10:15:05;21.30;99.90
6696;DHT22;3385;48.928;10.330;2023-07-29T10:17:34;21.20;99.90
6696;DHT22;3385;48.928;10.330;2023-07-29T10:20:00;21.30;99.90
6696;DHT22;3385;48.928;10.330;2023-07-29T10:22:36;21.40;99.90
6696;DHT22;3385;48.928;10.330;2023-07-29T10:27:43;21.60;99.90
6696;DHT22;3385;48.928;10.330;2023-07-29T10:30:13;22.00;99.90
6696;DHT22;3385;48.928;10.330;2023-07-29T10:32:42;22.20;99.90
6696;DHT22;3385;48.928;10.330;2023-07-29T10:35:15;22.20;99.90
6696;DHT22;3385;48.928;10.330;2023-07-29T10:37:41;22.80;99.90
6696;DHT22;3385;48.928;10.330;2023-07-29T10:40:10;22.70;99.90
6696;DHT22;3385;48.928;10.330;2023-07-29T10:42:38;22.80;99.90
6696;DHT22;3385;48.928;10.330;2023-07-29T10:45:18;23.10;99.90
6696;DHT22;3385;48.928;10.330;2023-07-29T10:47:44;23.40;99.90
6696;DHT22;3385;48.928;10.330;2023-07-29T10:50:21;23.50;99.90
6696;DHT22;3385;48.928;10.330;2023-07-29T10:52:51;23.80;99.90
6696;DHT22;3385;48.928;10.330;2023-07-29T10:55:37;23.80;99.90
6696;DHT22;3385;48.928;10.330;2023-07-29T10:58:14;23.90;99.90
6696;DHT22;3385;48.928;10.330;2023-07-29T11:00:45;24.30;99.90
6696;DHT22;3385;48.928;10.330;2023-07-29T11:03:12;24.30;99.90
6696;DHT22;3385;48.928;10.330;2023-07-29T11:05:53;24.20;99.90
6696;DHT22;3385;48.928;10.330;2023-07-29T11:08:27;24.10;99.90
6696;DHT22;3385;48.928;10.330;2023-07-29T11:11:07;23.20;99.90
6696;DHT22;3385;48.928;10.330;2023-07-29T11:13:37;23.10;99.90
6696;DHT22;3385;48.928;10.330;2023-07-29T11:16:04;22.50;99.90
6696;DHT22;3385;48.928;10.330;2023-07-29T11:18:32;22.20;99.90
6696;DHT22;3385;48.928;10.330;2023-07-29T11:21:00;22.00;99.90
6696;DHT22;3385;48.928;10.330;2023-07-29T11:23:31;21.90;99.90
6696;DHT22;3385;48.928;10.330;2023-07-29T11:25:57;21.70;99.90
6696;DHT22;3385;48.928;10.330;2023-07-29T11:28:24;21.40;99.90
6696;DHT22;3385;48.928;10.330;2023-07-29T11:30:50;21.30;99.90
6696;DHT22;3385;48.928;10.330;2023-07-29T11:33:21;20.30;99.90
6696;DHT22;3385;48.928;10.330;2023-07-29T11:35:47;19.80;99.90
6696;DHT22;3385;48.928;10.330;2023-07-29T11:40:53;18.80;99.90
6696;DHT22;3385;48.928;10.330;2023-07-29T11:43:19;18.90;99.90
6696;DHT22;3385;48.928;10.330;2023-07-29T11:45:45;18.40;99.90
6696;DHT22;3385;48.928;10.330;2023-07-29T11:48:10;18.60;99.90
6696;DHT22;3385;48.928;10.330;2023-07-29T11:50:36;18.40;99.90
6696;DHT22;3385;48.928;10.330;2023-07-29T11:53:03;18.30;99.90
6696;DHT22;3385;48.928;10.330;2023-07-29T11:55:28;18.30;99.90
6696;DHT22;3385;48.928;10.330;2023-07-29T11:57:55;18.40;99.90
6696;DHT22;3385;48.928;10.330;2023-07-29T12:00:21;18.50;99.90
6696;DHT22;3385;48.928;10.330;2023-07-29T12:02:48;18.20;99.90
6696;DHT22;3385;48.928;10.330;2023-07-29T12:05:14;18.60;99.90
6696;DHT22;3385;48.928;10.330;2023-07-29T12:07:42;19.40;99.90
6696;DHT22;3385;48.928;10.330;2023-07-29T12:10:09;20.20;99.90
6696;DHT22;3385;48.928;10.330;2023-07-29T12:12:48;20.60;99.90
6696;DHT22;3385;48.928;10.330;2023-07-29T12:15:22;21.20;99.90
6696;DHT22;3385;48.928;10.330;2023-07-29T12:17:48;22.00;99.90
6696;DHT22;3385;48.928;10.330;2023-07-29T12:20:13;23.20;99.90
6696;DHT22;3385;48.928;10.330;2023-07-29T12:22:39;23.80;99.90
6696;DHT22;3385;48.928;10.330;2023-07-29T12:25:05;24.30;99.90
6696;DHT22;3385;48.928;10.330;2023-07-29T12:27:31;24.60;99.90
6696;DHT22;3385;48.928;10.330;2023-07-29T12:29:57;24.70;99.90
6696;DHT22;3385;48.928;10.330;2023-07-29T12:32:25;24.50;99.90
6696;DHT22;3385;48.928;10.330;2023-07-29T12:34:53;24.20;99.90
6696;DHT22;3385;48.928;10.330;2023-07-29T12:37:19;24.00;99.90
6696;DHT22;3385;48.928;10.330;2023-07-29T12:39:45;25.30;99.90
6696;DHT22;3385;48.928;10.330;2023-07-29T12:42:11;26.30;99.90
6696;DHT22;3385;48.928;10.330;2023-07-29T12:44:37;26.00;99.90
6696;DHT22;3385;48.928;10.330;2023-07-29T12:49:31;26.30;99.90
6696;DHT22;3385;48.928;10.330;2023-07-29T12:52:00;26.80;99.90
6696;DHT22;3385;48.928;10.330;2023-07-29T12:54:26;26.90;99.90
6696;DHT22;3385;48.928;10.330;2023-07-29T12:56:51;27.40;99.90
6696;DHT22;3385;48.928;10.330;2023-07-29T13:01:43;27.90;99.90
6696;DHT22;3385;48.928;10.330;2023-07-29T13:04:10;28.00;99.90
6696;DHT22;3385;48.928;10.330;2023-07-29T13:06:36;28.00;99.90
6696;DHT22;3385;48.928;10.330;2023-07-29T13:09:02;28.70;99.90
6696;DHT22;3385;48.928;10.330;2023-07-29T13:11:28;28.80;99.90
6696;DHT22;3385;48.928;10.330;2023-07-29T13:13:54;29.20;99.90
6696;DHT22;3385;48.928;10.330;2023-07-29T13:16:20;30.00;99.90
6696;DHT22;3385;48.928;10.330;2023-07-29T13:21:11;31.70;99.90
6696;DHT22;3385;48.928;10.330;2023-07-29T13:23:37;31.60;99.90
6696;DHT22;3385;48.928;10.330;2023-07-29T13:28:29;31.20;99.90
6696;DHT22;3385;48.928;10.330;2023-07-29T13:30:55;31.80;99.90
6696;DHT22;3385;48.928;10.330;2023-07-29T13:33:20;31.80;99.90
6696;DHT22;3385;48.928;10.330;2023-07-29T13:35:46;30.80;99.90
6696;DHT22;3385;48.928;10.330;2023-07-29T13:38:12;29.60;99.90
6696;DHT22;3385;48.928;10.330;2023-07-29T13:40:37;29.70;99.90
6696;DHT22;3385;48.928;10.330;2023-07-29T13:43:03;29.90;99.90
6696;DHT22;3385;48.928;10.330;2023-07-29T13:45:29;30.10;99.90
6696;DHT22;3385;48.928;10.330;2023-07-29T13:47:55;29.00;99.90
6696;DHT22;3385;48.928;10.330;2023-07-29T13:50:20;29.90;99.90
6696;DHT22;3385;48.928;10.330;2023-07-29T13:55:12;30.40;99.90
6696;DHT22;3385;48.928;10.330;2023-07-29T13:57:38;30.70;99.90
6696;DHT22;3385;48.928;10.330;2023-07-29T14:00:05;30.90;99.90
6696;DHT22;3385;48.928;10.330;2023-07-29T14:02:32;30.90;99.90
6696;DHT22;3385;48.928;10.330;2023-07-29T14:04:57;31.30;99.90
6696;DHT22;3385;48.928;10.330;2023-07-29T14:07:23;31.40;99.90
6696;DHT22;3385;48.928;10.330;2023-07-29T14:09:49;32.50;99.90
6696;DHT22;3385;48.928;10.330;2023-07-29T14:12:15;32.20;99.90
6696;DHT22;3385;48.928;10.330;2023-07-29T14:14:42;31.40;99.90
6696;DHT22;3385;48.928;10.330;2023-07-29T14:17:07;31.00;99.90
6696;DHT22;3385;48.928;10.330;2023-07-29T14:19:39;29.60;99.90
6696;DHT22;3385;48.928;10.330;2023-07-29T14:22:05;29.30;99.90
6696;DHT22;3385;48.928;10.330;2023-07-29T14:24:31;28.80;99.90
6696;DHT22;3385;48.928;10.330;2023-07-29T14:26:57;28.30;99.90
6696;DHT22;3385;48.928;10.330;2023-07-29T14:29:23;27.60;99.90
6696;DHT22;3385;48.928;10.330;2023-07-29T14:31:48;27.90;99.90
6696;DHT22;3385;48.928;10.330;2023-07-29T14:34:14;28.00;99.90
6696;DHT22;3385;48.928;10.330;2023-07-29T14:36:40;29.60;99.90
6696;DHT22;3385;48.928;10.330;2023-07-29T14:39:06;30.40;99.90
6696;DHT22;3385;48.928;10.330;2023-07-29T14:41:32;30.40;99.90
6696;DHT22;3385;48.928;10.330;2023-07-29T14:43:57;31.20;99.90
6696;DHT22;3385;48.928;10.330;2023-07-29T14:46:23;31.90;99.90
6696;DHT22;3385;48.928;10.330;2023-07-29T14:48:49;32.70;99.90
6696;DHT22;3385;48.928;10.330;2023-07-29T14:51:15;32.60;99.90
6696;DHT22;3385;48.928;10.330;2023-07-29T14:53:41;32.50;99.90
6696;DHT22;3385;48.928;10.330;2023-07-29T14:56:06;32.20;99.90
6696;DHT22;3385;48.928;10.330;2023-07-29T14:58:32;30.70;99.90
6696;DHT22;3385;48.928;10.330;2023-07-29T15:00:58;29.60;99.90
6696;DHT22;3385;48.928;10.330;2023-07-29T15:03:24;29.60;99.90
6696;DHT22;3385;48.928;10.330;2023-07-29T15:05:53;29.20;99.90
6696;DHT22;3385;48.928;10.330;2023-07-29T15:08:19;29.10;99.90
6696;DHT22;3385;48.928;10.330;2023-07-29T15:10:46;28.90;99.90
6696;DHT22;3385;48.928;10.330;2023-07-29T15:13:12;28.20;99.90
6696;DHT22;3385;48.928;10.330;2023-07-29T15:15:41;27.70;99.90
6696;DHT22;3385;48.928;10.330;2023-07-29T15:18:07;27.20;99.90
6696;DHT22;3385;48.928;10.330;2023-07-29T15:20:32;26.70;99.90
6696;DHT22;3385;48.928;10.330;2023-07-29T15:22:58;26.20;99.90
6696;DHT22;3385;48.928;10.330;2023-07-29T15:25:24;25.90;99.90
6696;DHT22;3385;48.928;10.330;2023-07-29T15:27:49;25.60;99.90
6696;DHT22;3385;48.928;10.330;2023-07-29T15:30:15;25.30;99.90
6696;DHT22;3385;48.928;10.330;2023-07-29T15:37:36;26.20;99.90
6696;DHT22;3385;48.928;10.330;2023-07-29T15:40:02;27.30;99.90
6696;DHT22;3385;48.928;10.330;2023-07-29T15:42:28;27.00;99.90
6696;DHT22;3385;48.928;10.330;2023-07-29T15:44:55;27.30;99.90
6696;DHT22;3385;48.928;10.330;2023-07-29T15:47:20;26.90;99.90
6696;DHT22;3385;48.928;10.330;2023-07-29T15:52:12;27.00;99.90
6696;DHT22;3385;48.928;10.330;2023-07-29T15:54:40;27.20;99.90
6696;DHT22;3385;48.928;10.330;2023-07-29T15:57:07;27.50;99.90
6696;DHT22;3385;48.928;10.330;2023-07-29T15:59:33;27.80;99.90
6696;DHT22;3385;48.928;10.330;2023-07-29T16:01:58;27.70;99.90
6696;DHT22;3385;48.928;10.330;2023-07-29T16:04:24;27.10;99.90
6696;DHT22;3385;48.928;10.330;2023-07-29T16:06:50;26.60;99.90
6696;DHT22;3385;48.928;10.330;2023-07-29T16:09:15;25.70;99.90
6696;DHT22;3385;48.928;10.330;2023-07-29T16:11:43;26.10;99.90
6696;DHT22;3385;48.928;10.330;2023-07-29T16:14:09;25.70;99.90
6696;DHT22;3385;48.928;10.330;2023-07-29T16:16:34;26.60;99.90
6696;DHT22;3385;48.928;10.330;2023-07-29T16:21:26;27.20;99.90
6696;DHT22;3385;48.928;10.330;2023-07-29T16:26:21;28.20;99.90
6696;DHT22;3385;48.928;10.330;2023-07-29T16:28:47;28.00;99.90
6696;DHT22;3385;48.928;10.330;2023-07-29T16:31:13;28.30;99.90
6696;DHT22;3385;48.928;10.330;2023-07-29T16:33:40;28.20;99.90
6696;DHT22;3385;48.928;10.330;2023-07-29T16:36:06;27.20;99.90
6696;DHT22;3385;48.928;10.330;2023-07-29T16:38:31;27.40;99.90
6696;DHT22;3385;48.928;10.330;2023-07-29T16:43:23;27.20;99.90
6696;DHT22;3385;48.928;10.330;2023-07-29T16:45:49;26.90;99.90
6696;DHT22;3385;48.928;10.330;2023-07-29T16:48:14;26.90;99.90
6696;DHT22;3385;48.928;10.330;2023-07-29T16:50:40;26.50;99.90